sensor_id;sensor_type;location;lat;lon;timestamp;temperature;humidity
22781;DHT22;11557;50.884;4.322;2022-08-01T00:00:35;22.20;99.90
22781;DHT22;11557;50.884;4.322;2022-08-01T00:03:01;22.30;99.90
22781;DHT22;11557;50.884;4.322;2022-08-01T00:05:27;22.40;99.90
22781;DHT22;11557;50.884;4.322;2022-08-01T00:07:53;22.40;99.90
22781;DHT22;11557;50.884;4.322;2022-08-01T00:10:19;22.20;99.90
22781;DHT22;11557;50.884;4.322;2022-08-01T00:12:45;22.00;99.90
22781;DHT22;11557;50.884;4.322;2022-08-01T00:15:13;21.80;99.90
22781;DHT22;11557;50.884;4.322;2022-08-01T00:17:40;21.80;99.90
22781;DHT22;11557;50.884;4.322;2022-08-01T00:20:07;21.90;99.90
22781;DHT22;11557;50.884;4.322;2022-08-01T00:22:33;21.90;99.90
22781;DHT22;11557;50.884;4.322;2022-08-01T00:24:59;21.70;99.90
22781;DHT22;11557;50.884;4.322;2022-08-01T00:27:25;21.70;99.90
22781;DHT22;11557;50.884;4.322;2022-08-01T00:29:51;21.60;99.90
22781;DHT22;11557;50.884;4.322;2022-08-01T00:32:16;21.80;99.90
22781;DHT22;11557;50.884;4.322;2022-08-01T00:34:42;21.80;99.90
22781;DHT22;11557;50.884;4.322;2022-08-01T00:37:10;21.80;99.90
22781;DHT22;11557;50.884;4.322;2022-08-01T00:39:36;21.90;99.90
22781;DHT22;11557;50.884;4.322;2022-08-01T00:42:11;21.90;99.90
22781;DHT22;11557;50.884;4.322;2022-08-01T00:44:38;21.80;99.90
22781;DHT22;11557;50.884;4.322;2022-08-01T00:47:04;21.90;99.90
22781;DHT22;11557;50.884;4.322;2022-08-01T00:49:30;21.80;99.90
22781;DHT22;11557;50.884;4.322;2022-08-01T00:51:56;21.80;99.90
22781;DHT22;11557;50.884;4.322;2022-08-01T00:54:24;21.80;99.90
22781;DHT22;11557;50.884;4.322;2022-08-01T00:56:50;21.80;99.90
22781;DHT22;11557;50.884;4.322;2022-08-01T00:59:17;21.80;99.90
22781;DHT22;11557;50.884;4.322;2022-08-01T01:01:44;21.90;99.90
22781;DHT22;11557;50.884;4.322;2022-08-01T01:04:10;21.90;99.90
22781;DHT22;11557;50.884;4.322;2022-08-01T01:07:01;21.80;99.90
22781;DHT22;11557;50.884;4.322;2022-08-01T01:09:52;21.50;99.90
22781;DHT22;11557;50.884;4.322;2022-08-01T01:12:36;21.50;99.90
22781;DHT22;11557;50.884;4.322;2022-08-01T01:15:15;21.50;99.90
22781;DHT22;11557;50.884;4.322;2022-08-01T01:17:52;21.70;99.90
22781;DHT22;11557;50.884;4.322;2022-08-01T01:20:22;21.60;99.90
22781;DHT22;11557;50.884;4.322;2022-08-01T01:31:22;21.60;99.90
22781;DHT22;11557;50.884;4.322;2022-08-01T01:33:49;21.50;99.90
22781;DHT22;11557;50.884;4.322;2022-08-01T01:36:18;21.50;99.90
22781;DHT22;11557;50.884;4.322;2022-08-01T01:38:45;21.40;99.90
22781;DHT22;11557;50.884;4.322;2022-08-01T01:41:14;21.50;99.90
22781;DHT22;11557;50.884;4.322;2022-08-01T01:43:41;21.60;99.90
22781;DHT22;11557;50.884;4.322;2022-08-01T01:46:09;21.60;99.90
22781;DHT22;11557;50.884;4.322;2022-08-01T01:48:36;21.60;99.90
22781;DHT22;11557;50.884;4.322;2022-08-01T01:51:03;21.60;99.90
22781;DHT22;11557;50.884;4.322;2022-08-01T01:53:32;21.50;99.90
22781;DHT22;11557;50.884;4.322;2022-08-01T01:56:00;21.80;99.90
22781;DHT22;11557;50.884;4.322;2022-08-01T01:58:27;21.80;99.90
22781;DHT22;11557;50.884;4.322;2022-08-01T02:00:55;21.60;99.90
22781;DHT22;11557;50.884;4.322;2022-08-01T02:03:22;21.60;99.90
22781;DHT22;11557;50.884;4.322;2022-08-01T02:05:51;21.60;99.90
22781;DHT22;11557;50.884;4.322;2022-08-01T02:08:18;21.60;99.90
22781;DHT22;11557;50.884;4.322;2022-08-01T02:10:45;21.60;99.90
22781;DHT22;11557;50.884;4.322;2022-08-01T02:13:37;21.40;99.90
22781;DHT22;11557;50.884;4.322;2022-08-01T02:16:04;21.30;99.90
22781;DHT22;11557;50.884;4.322;2022-08-01T02:18:30;21.30;99.90
22781;DHT22;11557;50.884;4.322;2022-08-01T02:20:58;21.30;99.90
22781;DHT22;11557;50.884;4.322;2022-08-01T02:23:28;21.50;99.90
22781;DHT22;11557;50.884;4.322;2022-08-01T02:25:58;21.60;99.90
22781;DHT22;11557;50.884;4.322;2022-08-01T02:28:30;21.70;99.90
22781;DHT22;11557;50.884;4.322;2022-08-01T02:31:02;21.70;99.90
22781;DHT22;11557;50.884;4.322;2022-08-01T02:33:35;21.80;99.90
22781;DHT22;11557;50.884;4.322;2022-08-01T02:36:03;21.70;99.90
22781;DHT22;11557;50.884;4.322;2022-08-01T02:38:31;21.60;99.90
22781;DHT22;11557;50.884;4.322;2022-08-01T02:41:01;21.70;99.90
22781;DHT22;11557;50.884;4.322;2022-08-01T02:43:30;21.80;99.90
22781;DHT22;11557;50.884;4.322;2022-08-01T02:46:00;21.80;99.90
22781;DHT22;11557;50.884;4.322;2022-08-01T02:48:27;21.80;99.90
22781;DHT22;11557;50.884;4.322;2022-08-01T02:50:58;21.60;99.90
22781;DHT22;11557;50.884;4.322;2022-08-01T02:53:25;21.30;99.90
22781;DHT22;11557;50.884;4.322;2022-08-01T02:55:53;21.30;99.90
22781;DHT22;11557;50.884;4.322;2022-08-01T02:58:20;21.50;99.90
22781;DHT22;11557;50.884;4.322;2022-08-01T03:00:47;21.60;99.90
22781;DHT22;11557;50.884;4.322;2022-08-01T03:03:14;21.60;99.90
22781;DHT22;11557;50.884;4.322;2022-08-01T03:05:41;21.60;99.90
22781;DHT22;11557;50.884;4.322;2022-08-01T03:08:08;21.60;99.90
22781;DHT22;11557;50.884;4.322;2022-08-01T03:10:38;21.60;99.90
22781;DHT22;11557;50.884;4.322;2022-08-01T03:13:07;21.70;99.90
22781;DHT22;11557;50.884;4.322;2022-08-01T03:15:35;21.60;99.90
22781;DHT22;11557;50.884;4.322;2022-08-01T03:18:03;21.50;99.90
22781;DHT22;11557;50.884;4.322;2022-08-01T03:20:32;21.50;99.90
22781;DHT22;11557;50.884;4.322;2022-08-01T03:23:01;21.60;99.90
22781;DHT22;11557;50.884;4.322;2022-08-01T03:25:28;21.60;99.90
22781;DHT22;11557;50.884;4.322;2022-08-01T03:27:58;21.70;99.90
22781;DHT22;11557;50.884;4.322;2022-08-01T03:30:26;21.60;99.90
22781;DHT22;11557;50.884;4.322;2022-08-01T03:32:52;21.60;99.90
22781;DHT22;11557;50.884;4.322;2022-08-01T03:35:18;21.60;99.90
22781;DHT22;11557;50.884;4.322;2022-08-01T03:37:47;21.60;99.90
22781;DHT22;11557;50.884;4.322;2022-08-01T03:40:22;21.60;99.90
22781;DHT22;11557;50.884;4.322;2022-08-01T03:42:52;21.70;99.90
22781;DHT22;11557;50.884;4.322;2022-08-01T03:45:22;21.70;99.90
22781;DHT22;11557;50.884;4.322;2022-08-01T03:47:52;21.60;99.90
22781;DHT22;11557;50.884;4.322;2022-08-01T03:50:21;21.40;99.90
22781;DHT22;11557;50.884;4.322;2022-08-01T03:52:49;21.50;99.90
22781;DHT22;11557;50.884;4.322;2022-08-01T03:55:16;21.50;99.90
22781;DHT22;11557;50.884;4.322;2022-08-01T03:57:44;21.60;99.90
22781;DHT22;11557;50.884;4.322;2022-08-01T04:00:11;21.40;99.90
22781;DHT22;11557;50.884;4.322;2022-08-01T04:02:37;21.50;99.90
22781;DHT22;11557;50.884;4.322;2022-08-01T04:05:04;21.40;99.90
22781;DHT22;11557;50.884;4.322;2022-08-01T04:07:33;21.50;99.90
22781;DHT22;11557;50.884;4.322;2022-08-01T04:10:04;21.50;99.90
22781;DHT22;11557;50.884;4.322;2022-08-01T04:12:30;21.60;99.90
22781;DHT22;11557;50.884;4.322;2022-08-01T04:14:55;21.60;99.90
22781;DHT22;11557;50.884;4.322;2022-08-01T04:17:21;21.70;99.90
22781;DHT22;11557;50.884;4.322;2022-08-01T04:19:47;21.60;99.90
22781;DHT22;11557;50.884;4.322;2022-08-01T04:22:14;21.70;99.90
22781;DHT22;11557;50.884;4.322;2022-08-01T04:24:44;21.70;99.90
22781;DHT22;11557;50.884;4.322;2022-08-01T04:27:19;21.60;99.90
22781;DHT22;11557;50.884;4.322;2022-08-01T04:29:46;21.60;99.90
22781;DHT22;11557;50.884;4.322;2022-08-01T04:32:14;21.60;99.90
22781;DHT22;11557;50.884;4.322;2022-08-01T04:34:41;21.60;99.90
22781;DHT22;11557;50.884;4.322;2022-08-01T04:37:11;21.50;99.90
22781;DHT22;11557;50.884;4.322;2022-08-01T04:39:39;21.40;99.90
22781;DHT22;11557;50.884;4.322;2022-08-01T04:42:07;21.40;99.90
22781;DHT22;11557;50.884;4.322;2022-08-01T04:44:33;21.50;99.90
22781;DHT22;11557;50.884;4.322;2022-08-01T04:47:00;21.60;99.90
22781;DHT22;11557;50.884;4.322;2022-08-01T04:49:30;21.60;99.90
22781;DHT22;11557;50.884;4.322;2022-08-01T04:51:56;21.60;99.90
22781;DHT22;11557;50.884;4.322;2022-08-01T04:54:29;21.70;99.90
22781;DHT22;11557;50.884;4.322;2022-08-01T04:56:56;21.90;99.90
22781;DHT22;11557;50.884;4.322;2022-08-01T04:59:28;21.90;99.90
22781;DHT22;11557;50.884;4.322;2022-08-01T05:04:40;22.10;99.90
22781;DHT22;11557;50.884;4.322;2022-08-01T05:07:06;22.20;99.90
22781;DHT22;11557;50.884;4.322;2022-08-01T05:09:32;22.10;99.90
22781;DHT22;11557;50.884;4.322;2022-08-01T05:11:59;22.10;99.90
22781;DHT22;11557;50.884;4.322;2022-08-01T05:14:27;22.00;99.90
22781;DHT22;11557;50.884;4.322;2022-08-01T05:16:53;21.90;99.90
22781;DHT22;11557;50.884;4.322;2022-08-01T05:19:19;22.10;99.90
22781;DHT22;11557;50.884;4.322;2022-08-01T05:21:44;22.00;99.90
22781;DHT22;11557;50.884;4.322;2022-08-01T05:24:10;22.10;99.90
22781;DHT22;11557;50.884;4.322;2022-08-01T05:26:36;22.10;99.90
22781;DHT22;11557;50.884;4.322;2022-08-01T05:29:02;22.20;99.90
22781;DHT22;11557;50.884;4.322;2022-08-01T05:31:28;22.10;99.90
22781;DHT22;11557;50.884;4.322;2022-08-01T05:33:53;22.00;99.90
22781;DHT22;11557;50.884;4.322;2022-08-01T05:36:19;21.60;99.90
22781;DHT22;11557;50.884;4.322;2022-08-01T05:38:45;21.60;99.90
22781;DHT22;11557;50.884;4.322;2022-08-01T05:41:11;21.80;99.90
22781;DHT22;11557;50.884;4.322;2022-08-01T05:43:36;21.80;99.90
22781;DHT22;11557;50.884;4.322;2022-08-01T05:46:02;21.80;99.90
22781;DHT22;11557;50.884;4.322;2022-08-01T05:48:28;22.00;99.90
22781;DHT22;11557;50.884;4.322;2022-08-01T05:50:54;22.10;99.90
22781;DHT22;11557;50.884;4.322;2022-08-01T05:53:20;21.90;99.90
22781;DHT22;11557;50.884;4.322;2022-08-01T05:55:45;22.00;99.90
22781;DHT22;11557;50.884;4.322;2022-08-01T05:58:12;22.20;99.90
22781;DHT22;11557;50.884;4.322;2022-08-01T06:00:37;22.20;99.90
22781;DHT22;11557;50.884;4.322;2022-08-01T06:03:03;22.10;99.90
22781;DHT22;11557;50.884;4.322;2022-08-01T06:05:29;22.10;99.90
22781;DHT22;11557;50.884;4.322;2022-08-01T06:07:55;22.00;99.90
22781;DHT22;11557;50.884;4.322;2022-08-01T06:10:20;22.10;99.90
22781;DHT22;11557;50.884;4.322;2022-08-01T06:12:46;22.30;99.90
22781;DHT22;11557;50.884;4.322;2022-08-01T06:15:12;22.50;99.90
22781;DHT22;11557;50.884;4.322;2022-08-01T06:17:37;22.60;99.90
22781;DHT22;11557;50.884;4.322;2022-08-01T06:20:05;22.50;99.90
22781;DHT22;11557;50.884;4.322;2022-08-01T06:22:31;22.50;99.90
22781;DHT22;11557;50.884;4.322;2022-08-01T06:24:57;22.40;99.90
22781;DHT22;11557;50.884;4.322;2022-08-01T06:27:22;22.50;99.90
22781;DHT22;11557;50.884;4.322;2022-08-01T06:29:50;22.70;99.90
22781;DHT22;11557;50.884;4.322;2022-08-01T06:32:19;22.80;99.90
22781;DHT22;11557;50.884;4.322;2022-08-01T06:34:45;23.00;99.90
22781;DHT22;11557;50.884;4.322;2022-08-01T06:37:10;23.20;99.90
22781;DHT22;11557;50.884;4.322;2022-08-01T06:39:38;23.20;99.90
22781;DHT22;11557;50.884;4.322;2022-08-01T06:42:04;23.30;99.90
22781;DHT22;11557;50.884;4.322;2022-08-01T06:44:29;23.30;99.90
22781;DHT22;11557;50.884;4.322;2022-08-01T06:46:55;23.50;99.90
22781;DHT22;11557;50.884;4.322;2022-08-01T06:49:20;23.60;99.90
22781;DHT22;11557;50.884;4.322;2022-08-01T06:51:46;23.60;99.90
22781;DHT22;11557;50.884;4.322;2022-08-01T06:54:12;23.60;99.90
22781;DHT22;11557;50.884;4.322;2022-08-01T06:56:37;23.60;99.90
22781;DHT22;11557;50.884;4.322;2022-08-01T06:59:03;23.50;99.90
22781;DHT22;11557;50.884;4.322;2022-08-01T07:01:29;23.40;99.90
22781;DHT22;11557;50.884;4.322;2022-08-01T07:03:54;23.50;99.90
22781;DHT22;11557;50.884;4.322;2022-08-01T07:06:24;23.40;99.90
22781;DHT22;11557;50.884;4.322;2022-08-01T07:08:51;23.40;99.90
22781;DHT22;11557;50.884;4.322;2022-08-01T07:11:16;23.50;99.90
22781;DHT22;11557;50.884;4.322;2022-08-01T07:13:45;23.70;99.90
22781;DHT22;11557;50.884;4.322;2022-08-01T07:16:12;23.30;99.90
22781;DHT22;11557;50.884;4.322;2022-08-01T07:18:37;23.70;99.90
22781;DHT22;11557;50.884;4.322;2022-08-01T07:21:03;24.50;99.90
22781;DHT22;11557;50.884;4.322;2022-08-01T07:23:29;24.60;99.90
22781;DHT22;11557;50.884;4.322;2022-08-01T07:25:55;25.70;99.90
22781;DHT22;11557;50.884;4.322;2022-08-01T07:28:21;26.80;99.90
22781;DHT22;11557;50.884;4.322;2022-08-01T07:30:46;26.60;99.90
22781;DHT22;11557;50.884;4.322;2022-08-01T07:33:13;26.20;99.90
22781;DHT22;11557;50.884;4.322;2022-08-01T07:35:39;26.00;99.90
22781;DHT22;11557;50.884;4.322;2022-08-01T07:38:05;25.40;99.90
22781;DHT22;11557;50.884;4.322;2022-08-01T07:40:31;25.30;99.90
22781;DHT22;11557;50.884;4.322;2022-08-01T07:42:57;24.90;99.90
22781;DHT22;11557;50.884;4.322;2022-08-01T07:45:23;24.90;99.90
22781;DHT22;11557;50.884;4.322;2022-08-01T07:47:48;24.40;99.90
22781;DHT22;11557;50.884;4.322;2022-08-01T07:50:17;24.30;99.90
22781;DHT22;11557;50.884;4.322;2022-08-01T07:52:42;24.10;99.90
22781;DHT22;11557;50.884;4.322;2022-08-01T07:55:10;23.70;99.90
22781;DHT22;11557;50.884;4.322;2022-08-01T07:57:36;23.70;99.90
22781;DHT22;11557;50.884;4.322;2022-08-01T08:00:04;23.40;99.90
22781;DHT22;11557;50.884;4.322;2022-08-01T08:02:30;23.40;99.90
22781;DHT22;11557;50.884;4.322;2022-08-01T08:04:55;23.30;99.90
22781;DHT22;11557;50.884;4.322;2022-08-01T08:07:21;23.30;99.90
22781;DHT22;11557;50.884;4.322;2022-08-01T08:09:46;23.50;99.90
22781;DHT22;11557;50.884;4.322;2022-08-01T08:12:12;23.50;99.90
22781;DHT22;11557;50.884;4.322;2022-08-01T08:14:37;23.70;99.90
22781;DHT22;11557;50.884;4.322;2022-08-01T08:17:04;23.90;99.90
22781;DHT22;11557;50.884;4.322;2022-08-01T08:19:29;24.20;99.90
22781;DHT22;11557;50.884;4.322;2022-08-01T08:21:57;24.20;99.90
22781;DHT22;11557;50.884;4.322;2022-08-01T08:24:23;24.40;99.90
22781;DHT22;11557;50.884;4.322;2022-08-01T08:26:51;24.30;99.90
22781;DHT22;11557;50.884;4.322;2022-08-01T08:29:18;24.70;99.90
22781;DHT22;11557;50.884;4.322;2022-08-01T08:31:44;24.80;99.90
22781;DHT22;11557;50.884;4.322;2022-08-01T08:34:10;25.30;99.90
22781;DHT22;11557;50.884;4.322;2022-08-01T08:36:36;25.70;99.90
22781;DHT22;11557;50.884;4.322;2022-08-01T08:39:03;26.10;99.90
22781;DHT22;11557;50.884;4.322;2022-08-01T08:41:35;26.60;99.90
22781;DHT22;11557;50.884;4.322;2022-08-01T08:44:02;27.40;99.90
22781;DHT22;11557;50.884;4.322;2022-08-01T08:46:31;30.20;99.90
22781;DHT22;11557;50.884;4.322;2022-08-01T08:48:58;32.00;99.90
22781;DHT22;11557;50.884;4.322;2022-08-01T08:51:26;32.00;99.90
22781;DHT22;11557;50.884;4.322;2022-08-01T08:53:55;31.10;99.90
22781;DHT22;11557;50.884;4.322;2022-08-01T08:56:21;29.60;99.90
22781;DHT22;11557;50.884;4.322;2022-08-01T08:58:48;28.00;99.90
22781;DHT22;11557;50.884;4.322;2022-08-01T09:01:15;27.00;99.90
22781;DHT22;11557;50.884;4.322;2022-08-01T09:03:43;26.60;99.90
22781;DHT22;11557;50.884;4.322;2022-08-01T09:06:09;26.10;99.90
22781;DHT22;11557;50.884;4.322;2022-08-01T09:08:34;26.00;99.90
22781;DHT22;11557;50.884;4.322;2022-08-01T09:11:00;26.70;99.90
22781;DHT22;11557;50.884;4.322;2022-08-01T09:13:26;28.00;99.90
22781;DHT22;11557;50.884;4.322;2022-08-01T09:15:53;29.70;99.90
22781;DHT22;11557;50.884;4.322;2022-08-01T09:18:39;31.00;99.90
22781;DHT22;11557;50.884;4.322;2022-08-01T09:23:45;32.60;99.90
22781;DHT22;11557;50.884;4.322;2022-08-01T09:26:13;33.10;99.90
22781;DHT22;11557;50.884;4.322;2022-08-01T09:28:39;32.10;99.90
22781;DHT22;11557;50.884;4.322;2022-08-01T09:31:07;32.90;99.90
22781;DHT22;11557;50.884;4.322;2022-08-01T09:36:19;33.90;99.90
22781;DHT22;11557;50.884;4.322;2022-08-01T09:38:45;33.10;99.90
22781;DHT22;11557;50.884;4.322;2022-08-01T09:41:10;32.30;99.90
22781;DHT22;11557;50.884;4.322;2022-08-01T09:43:37;31.20;99.90
22781;DHT22;11557;50.884;4.322;2022-08-01T09:46:10;30.60;99.90
22781;DHT22;11557;50.884;4.322;2022-08-01T09:48:57;29.70;99.90
22781;DHT22;11557;50.884;4.322;2022-08-01T09:51:30;29.30;99.90
22781;DHT22;11557;50.884;4.322;2022-08-01T09:53:56;29.50;99.90
22781;DHT22;11557;50.884;4.322;2022-08-01T09:56:23;29.70;99.90
22781;DHT22;11557;50.884;4.322;2022-08-01T09:58:50;30.60;99.90
22781;DHT22;11557;50.884;4.322;2022-08-01T10:01:16;30.60;99.90
22781;DHT22;11557;50.884;4.322;2022-08-01T10:03:45;30.90;99.90
22781;DHT22;11557;50.884;4.322;2022-08-01T10:06:20;31.10;99.90
22781;DHT22;11557;50.884;4.322;2022-08-01T10:08:49;31.30;99.90
22781;DHT22;11557;50.884;4.322;2022-08-01T10:11:15;32.10;99.90
22781;DHT22;11557;50.884;4.322;2022-08-01T10:13:42;32.00;99.90
22781;DHT22;11557;50.884;4.322;2022-08-01T10:16:08;31.70;99.90
22781;DHT22;11557;50.884;4.322;2022-08-01T10:18:35;31.40;99.90
22781;DHT22;11557;50.884;4.322;2022-08-01T10:21:03;30.80;99.90
22781;DHT22;11557;50.884;4.322;2022-08-01T10:23:34;30.60;99.90
22781;DHT22;11557;50.884;4.322;2022-08-01T10:26:01;30.50;99.90
22781;DHT22;11557;50.884;4.322;2022-08-01T10:28:30;30.20;99.90
22781;DHT22;11557;50.884;4.322;2022-08-01T10:30:57;29.30;99.90
22781;DHT22;11557;50.884;4.322;2022-08-01T10:33:23;28.50;99.90
22781;DHT22;11557;50.884;4.322;2022-08-01T10:35:51;28.60;99.90
22781;DHT22;11557;50.884;4.322;2022-08-01T10:38:17;28.50;99.90
22781;DHT22;11557;50.884;4.322;2022-08-01T10:40:44;29.00;99.90
22781;DHT22;11557;50.884;4.322;2022-08-01T10:43:10;28.90;99.90
22781;DHT22;11557;50.884;4.322;2022-08-01T10:45:36;28.60;99.90
22781;DHT22;11557;50.884;4.322;2022-08-01T10:48:12;28.40;99.90
22781;DHT22;11557;50.884;4.322;2022-08-01T10:50:42;28.50;99.90
22781;DHT22;11557;50.884;4.322;2022-08-01T10:58:28;28.40;99.90
22781;DHT22;11557;50.884;4.322;2022-08-01T11:01:17;28.20;99.90
22781;DHT22;11557;50.884;4.322;2022-08-01T11:12:10;27.90;99.90
22781;DHT22;11557;50.884;4.322;2022-08-01T11:17:37;28.00;99.90
22781;DHT22;11557;50.884;4.322;2022-08-01T11:20:11;28.30;99.90
22781;DHT22;11557;50.884;4.322;2022-08-01T11:25:21;29.20;99.90
22781;DHT22;11557;50.884;4.322;2022-08-01T11:27:47;29.30;99.90
22781;DHT22;11557;50.884;4.322;2022-08-01T11:32:48;30.10;99.90
22781;DHT22;11557;50.884;4.322;2022-08-01T11:35:14;30.30;99.90
22781;DHT22;11557;50.884;4.322;2022-08-01T11:37:40;30.70;99.90
22781;DHT22;11557;50.884;4.322;2022-08-01T11:40:23;30.60;99.90
22781;DHT22;11557;50.884;4.322;2022-08-01T11:43:16;30.20;99.90
22781;DHT22;11557;50.884;4.322;2022-08-01T11:45:50;29.90;99.90
22781;DHT22;11557;50.884;4.322;2022-08-01T11:48:24;29.90;99.90
22781;DHT22;11557;50.884;4.322;2022-08-01T11:50:55;30.00;99.90
22781;DHT22;11557;50.884;4.322;2022-08-01T11:53:21;30.00;99.90
22781;DHT22;11557;50.884;4.322;2022-08-01T11:55:52;29.60;99.90
22781;DHT22;11557;50.884;4.322;2022-08-01T11:58:23;29.30;99.90
22781;DHT22;11557;50.884;4.322;2022-08-01T12:00:57;29.40;99.90
22781;DHT22;11557;50.884;4.322;2022-08-01T12:03:29;29.30;99.90
22781;DHT22;11557;50.884;4.322;2022-08-01T12:05:55;29.80;99.90
22781;DHT22;11557;50.884;4.322;2022-08-01T12:08:30;30.00;99.90
22781;DHT22;11557;50.884;4.322;2022-08-01T12:10:59;29.90;99.90
22781;DHT22;11557;50.884;4.322;2022-08-01T12:13:26;30.00;99.90
22781;DHT22;11557;50.884;4.322;2022-08-01T12:15:52;29.90;99.90
22781;DHT22;11557;50.884;4.322;2022-08-01T12:18:18;29.60;99.90
22781;DHT22;11557;50.884;4.322;2022-08-01T12:20:45;29.70;99.90
22781;DHT22;11557;50.884;4.322;2022-08-01T12:23:14;29.40;99.90
22781;DHT22;11557;50.884;4.322;2022-08-01T12:25:40;28.80;99.90
22781;DHT22;11557;50.884;4.322;2022-08-01T12:28:10;28.70;99.90
22781;DHT22;11557;50.884;4.322;2022-08-01T12:30:36;28.90;99.90
22781;DHT22;11557;50.884;4.322;2022-08-01T12:33:07;28.90;99.90
22781;DHT22;11557;50.884;4.322;2022-08-01T12:35:34;28.90;99.90
22781;DHT22;11557;50.884;4.322;2022-08-01T12:38:02;29.10;99.90
22781;DHT22;11557;50.884;4.322;2022-08-01T12:40:31;29.10;99.90
22781;DHT22;11557;50.884;4.322;2022-08-01T12:43:03;28.90;99.90
22781;DHT22;11557;50.884;4.322;2022-08-01T12:45:40;29.10;99.90
22781;DHT22;11557;50.884;4.322;2022-08-01T12:48:09;29.40;99.90
22781;DHT22;11557;50.884;4.322;2022-08-01T12:50:42;29.10;99.90
22781;DHT22;11557;50.884;4.322;2022-08-01T12:53:08;29.10;99.90
22781;DHT22;11557;50.884;4.322;2022-08-01T12:55:50;29.40;99.90
22781;DHT22;11557;50.884;4.322;2022-08-01T12:58:18;29.80;99.90
22781;DHT22;11557;50.884;4.322;2022-08-01T13:00:46;30.10;99.90
22781;DHT22;11557;50.884;4.322;2022-08-01T13:03:13;29.90;99.90
22781;DHT22;11557;50.884;4.322;2022-08-01T13:05:49;29.80;99.90
22781;DHT22;11557;50.884;4.322;2022-08-01T13:08:18;29.50;99.90
22781;DHT22;11557;50.884;4.322;2022-08-01T13:10:44;29.90;99.90
22781;DHT22;11557;50.884;4.322;2022-08-01T13:13:10;29.60;99.90
22781;DHT22;11557;50.884;4.322;2022-08-01T13:15:38;29.50;99.90
22781;DHT22;11557;50.884;4.322;2022-08-01T13:18:37;29.40;99.90
22781;DHT22;11557;50.884;4.322;2022-08-01T13:21:12;28.80;99.90
22781;DHT22;11557;50.884;4.322;2022-08-01T13:23:39;28.70;99.90
22781;DHT22;11557;50.884;4.322;2022-08-01T13:26:05;29.00;99.90
22781;DHT22;11557;50.884;4.322;2022-08-01T13:28:31;29.20;99.90
22781;DHT22;11557;50.884;4.322;2022-08-01T13:33:45;29.30;99.90
22781;DHT22;11557;50.884;4.322;2022-08-01T13:36:12;28.70;99.90
22781;DHT22;11557;50.884;4.322;2022-08-01T13:38:41;28.60;99.90
22781;DHT22;11557;50.884;4.322;2022-08-01T13:41:26;28.40;99.90
22781;DHT22;11557;50.884;4.322;2022-08-01T13:43:54;28.30;99.90
22781;DHT22;11557;50.884;4.322;2022-08-01T13:46:20;28.50;99.90
22781;DHT22;11557;50.884;4.322;2022-08-01T13:48:46;28.40;99.90
22781;DHT22;11557;50.884;4.322;2022-08-01T13:51:12;28.50;99.90
22781;DHT22;11557;50.884;4.322;2022-08-01T13:53:37;28.70;99.90
22781;DHT22;11557;50.884;4.322;2022-08-01T13:56:03;29.10;99.90
22781;DHT22;11557;50.884;4.322;2022-08-01T13:58:29;29.20;99.90
22781;DHT22;11557;50.884;4.322;2022-08-01T14:00:55;29.60;99.90
22781;DHT22;11557;50.884;4.322;2022-08-01T14:03:21;30.00;99.90
22781;DHT22;11557;50.884;4.322;2022-08-01T14:05:47;29.90;99.90
22781;DHT22;11557;50.884;4.322;2022-08-01T14:08:16;29.80;99.90
22781;DHT22;11557;50.884;4.322;2022-08-01T14:10:42;29.70;99.90
22781;DHT22;11557;50.884;4.322;2022-08-01T14:13:10;29.50;99.90
22781;DHT22;11557;50.884;4.322;2022-08-01T14:15:35;29.60;99.90
22781;DHT22;11557;50.884;4.322;2022-08-01T14:18:01;30.00;99.90
22781;DHT22;11557;50.884;4.322;2022-08-01T14:20:27;30.10;99.90
22781;DHT22;11557;50.884;4.322;2022-08-01T14:22:53;30.00;99.90
22781;DHT22;11557;50.884;4.322;2022-08-01T14:25:18;29.40;99.90
22781;DHT22;11557;50.884;4.322;2022-08-01T14:27:44;29.20;99.90
22781;DHT22;11557;50.884;4.322;2022-08-01T14:30:11;29.20;99.90
22781;DHT22;11557;50.884;4.322;2022-08-01T14:32:37;28.90;99.90
22781;DHT22;11557;50.884;4.322;2022-08-01T14:35:05;28.30;99.90
22781;DHT22;11557;50.884;4.322;2022-08-01T14:37:33;28.40;99.90
22781;DHT22;11557;50.884;4.322;2022-08-01T14:40:02;28.60;99.90
22781;DHT22;11557;50.884;4.322;2022-08-01T14:42:30;29.10;99.90
22781;DHT22;11557;50.884;4.322;2022-08-01T14:44:56;29.30;99.90
22781;DHT22;11557;50.884;4.322;2022-08-01T14:47:21;29.40;99.90
22781;DHT22;11557;50.884;4.322;2022-08-01T14:49:47;29.50;99.90
22781;DHT22;11557;50.884;4.322;2022-08-01T14:52:13;29.80;99.90
22781;DHT22;11557;50.884;4.322;2022-08-01T14:54:40;29.80;99.90
22781;DHT22;11557;50.884;4.322;2022-08-01T14:57:06;29.80;99.90
22781;DHT22;11557;50.884;4.322;2022-08-01T14:59:31;29.90;99.90
22781;DHT22;11557;50.884;4.322;2022-08-01T15:01:57;29.70;99.90
22781;DHT22;11557;50.884;4.322;2022-08-01T15:04:22;29.40;99.90
22781;DHT22;11557;50.884;4.322;2022-08-01T15:06:48;29.30;99.90
22781;DHT22;11557;50.884;4.322;2022-08-01T15:09:14;29.60;99.90
22781;DHT22;11557;50.884;4.322;2022-08-01T15:11:39;29.80;99.90
22781;DHT22;11557;50.884;4.322;2022-08-01T15:14:05;29.90;99.90
22781;DHT22;11557;50.884;4.322;2022-08-01T15:16:49;29.80;99.90
22781;DHT22;11557;50.884;4.322;2022-08-01T15:19:15;29.80;99.90
22781;DHT22;11557;50.884;4.322;2022-08-01T15:21:40;29.80;99.90
22781;DHT22;11557;50.884;4.322;2022-08-01T15:24:06;30.00;99.90
22781;DHT22;11557;50.884;4.322;2022-08-01T15:26:32;30.10;99.90
22781;DHT22;11557;50.884;4.322;2022-08-01T15:28:57;29.70;99.90
22781;DHT22;11557;50.884;4.322;2022-08-01T15:31:24;29.60;99.90
22781;DHT22;11557;50.884;4.322;2022-08-01T15:33:49;29.70;99.90
22781;DHT22;11557;50.884;4.322;2022-08-01T15:36:15;29.80;99.90
22781;DHT22;11557;50.884;4.322;2022-08-01T15:38:41;29.80;99.90
22781;DHT22;11557;50.884;4.322;2022-08-01T15:41:06;29.30;99.90
22781;DHT22;11557;50.884;4.322;2022-08-01T15:43:32;29.10;99.90
22781;DHT22;11557;50.884;4.322;2022-08-01T15:45:57;29.10;99.90
22781;DHT22;11557;50.884;4.322;2022-08-01T15:48:23;29.20;99.90
22781;DHT22;11557;50.884;4.322;2022-08-01T15:50:49;29.00;99.90
22781;DHT22;11557;50.884;4.322;2022-08-01T15:53:15;28.90;99.90
22781;DHT22;11557;50.884;4.322;2022-08-01T15:55:41;29.20;99.90
22781;DHT22;11557;50.884;4.322;2022-08-01T15:58:07;29.20;99.90
22781;DHT22;11557;50.884;4.322;2022-08-01T16:00:33;29.40;99.90
22781;DHT22;11557;50.884;4.322;2022-08-01T16:02:59;29.60;99.90
22781;DHT22;11557;50.884;4.322;2022-08-01T16:05:24;29.70;99.90
22781;DHT22;11557;50.884;4.322;2022-08-01T16:07:50;29.30;99.90
22781;DHT22;11557;50.884;4.322;2022-08-01T16:10:16;29.00;99.90
22781;DHT22;11557;50.884;4.322;2022-08-01T16:12:41;29.10;99.90
22781;DHT22;11557;50.884;4.322;2022-08-01T16:15:08;29.10;99.90